sensor_id;sensor_type;location;lat;lon;timestamp;temperature;humidity
76203;DHT22;64985;46.364;17.008;2023-04-01T00:00:44;8.50;99.90
76203;DHT22;64985;46.364;17.008;2023-04-01T00:03:49;8.50;99.90
76203;DHT22;64985;46.364;17.008;2023-04-01T00:06:52;8.40;99.90
76203;DHT22;64985;46.364;17.008;2023-04-01T00:09:55;8.40;99.90
76203;DHT22;64985;46.364;17.008;2023-04-01T00:12:58;8.40;99.90
76203;DHT22;64985;46.364;17.008;2023-04-01T00:16:02;8.30;99.90
76203;DHT22;64985;46.364;17.008;2023-04-01T00:19:21;8.20;99.90
76203;DHT22;64985;46.364;17.008;2023-04-01T00:22:25;8.20;99.90
76203;DHT22;64985;46.364;17.008;2023-04-01T00:25:29;8.30;99.90
76203;DHT22;64985;46.364;17.008;2023-04-01T00:28:34;8.40;99.90
76203;DHT22;64985;46.364;17.008;2023-04-01T00:31:38;8.40;99.90
76203;DHT22;64985;46.364;17.008;2023-04-01T00:34:42;8.50;99.90
76203;DHT22;64985;46.364;17.008;2023-04-01T00:37:47;8.60;99.90
76203;DHT22;64985;46.364;17.008;2023-04-01T00:40:50;8.60;99.90
76203;DHT22;64985;46.364;17.008;2023-04-01T00:44:22;8.70;99.90
76203;DHT22;64985;46.364;17.008;2023-04-01T00:47:26;8.80;99.90
76203;DHT22;64985;46.364;17.008;2023-04-01T00:50:31;8.90;99.90
76203;DHT22;64985;46.364;17.008;2023-04-01T00:53:38;8.90;99.90
76203;DHT22;64985;46.364;17.008;2023-04-01T00:56:49;9.00;99.90
76203;DHT22;64985;46.364;17.008;2023-04-01T00:59:58;9.10;99.90
76203;DHT22;64985;46.364;17.008;2023-04-01T01:03:02;9.10;99.90
76203;DHT22;64985;46.364;17.008;2023-04-01T01:06:17;9.10;99.90
76203;DHT22;64985;46.364;17.008;2023-04-01T01:10:01;9.10;99.90
76203;DHT22;64985;46.364;17.008;2023-04-01T01:16:24;9.10;99.90
76203;DHT22;64985;46.364;17.008;2023-04-01T01:23:33;9.00;99.90
76203;DHT22;64985;46.364;17.008;2023-04-01T01:26:55;8.90;99.90
76203;DHT22;64985;46.364;17.008;2023-04-01T01:36:14;9.00;99.90
76203;DHT22;64985;46.364;17.008;2023-04-01T01:39:18;9.30;99.90
76203;DHT22;64985;46.364;17.008;2023-04-01T01:42:25;9.40;99.90
76203;DHT22;64985;46.364;17.008;2023-04-01T01:45:29;9.40;99.90
76203;DHT22;64985;46.364;17.008;2023-04-01T01:48:34;9.40;99.90
76203;DHT22;64985;46.364;17.008;2023-04-01T01:51:39;9.30;99.90
76203;DHT22;64985;46.364;17.008;2023-04-01T01:54:50;9.30;99.90
76203;DHT22;64985;46.364;17.008;2023-04-01T01:57:57;9.20;99.90
76203;DHT22;64985;46.364;17.008;2023-04-01T02:01:05;9.20;99.90
76203;DHT22;64985;46.364;17.008;2023-04-01T02:04:09;9.10;99.90
76203;DHT22;64985;46.364;17.008;2023-04-01T02:07:34;9.10;99.90
76203;DHT22;64985;46.364;17.008;2023-04-01T02:10:42;9.00;99.90
76203;DHT22;64985;46.364;17.008;2023-04-01T02:13:54;9.00;99.90
76203;DHT22;64985;46.364;17.008;2023-04-01T02:17:05;9.10;99.90
76203;DHT22;64985;46.364;17.008;2023-04-01T02:20:16;9.00;99.90
76203;DHT22;64985;46.364;17.008;2023-04-01T02:23:20;9.00;99.90
76203;DHT22;64985;46.364;17.008;2023-04-01T02:26:25;9.00;99.90
76203;DHT22;64985;46.364;17.008;2023-04-01T02:29:29;9.00;99.90
76203;DHT22;64985;46.364;17.008;2023-04-01T02:32:33;9.00;99.90
76203;DHT22;64985;46.364;17.008;2023-04-01T02:35:40;9.00;99.90
76203;DHT22;64985;46.364;17.008;2023-04-01T02:38:45;9.00;99.90
76203;DHT22;64985;46.364;17.008;2023-04-01T02:41:49;9.00;99.90
76203;DHT22;64985;46.364;17.008;2023-04-01T02:44:52;8.90;99.90
76203;DHT22;64985;46.364;17.008;2023-04-01T02:47:55;8.90;99.90
76203;DHT22;64985;46.364;17.008;2023-04-01T02:50:58;8.80;99.90
76203;DHT22;64985;46.364;17.008;2023-04-01T02:54:02;8.80;99.90
76203;DHT22;64985;46.364;17.008;2023-04-01T02:57:05;8.70;99.90
76203;DHT22;64985;46.364;17.008;2023-04-01T03:00:09;8.80;99.90
76203;DHT22;64985;46.364;17.008;2023-04-01T03:03:14;8.80;99.90
76203;DHT22;64985;46.364;17.008;2023-04-01T03:06:17;8.80;99.90
76203;DHT22;64985;46.364;17.008;2023-04-01T03:09:20;8.80;99.90
76203;DHT22;64985;46.364;17.008;2023-04-01T03:12:23;8.70;99.90
76203;DHT22;64985;46.364;17.008;2023-04-01T03:15:26;8.60;99.90
76203;DHT22;64985;46.364;17.008;2023-04-01T03:18:29;8.60;99.90
76203;DHT22;64985;46.364;17.008;2023-04-01T03:21:32;8.60;99.90
76203;DHT22;64985;46.364;17.008;2023-04-01T03:24:35;8.50;99.90
76203;DHT22;64985;46.364;17.008;2023-04-01T03:27:38;8.50;99.90
76203;DHT22;64985;46.364;17.008;2023-04-01T03:30:41;8.40;99.90
76203;DHT22;64985;46.364;17.008;2023-04-01T03:33:45;8.40;99.90
76203;DHT22;64985;46.364;17.008;2023-04-01T03:36:48;8.30;99.90
76203;DHT22;64985;46.364;17.008;2023-04-01T03:39:51;8.30;99.90
76203;DHT22;64985;46.364;17.008;2023-04-01T03:42:54;8.30;99.90
76203;DHT22;64985;46.364;17.008;2023-04-01T03:45:58;8.20;99.90
76203;DHT22;64985;46.364;17.008;2023-04-01T03:49:02;8.20;99.90
76203;DHT22;64985;46.364;17.008;2023-04-01T03:52:09;8.30;99.90
76203;DHT22;64985;46.364;17.008;2023-04-01T03:55:13;8.20;99.90
76203;DHT22;64985;46.364;17.008;2023-04-01T03:58:16;8.20;99.90
76203;DHT22;64985;46.364;17.008;2023-04-01T04:01:20;8.10;99.90
76203;DHT22;64985;46.364;17.008;2023-04-01T04:04:24;8.10;99.90
76203;DHT22;64985;46.364;17.008;2023-04-01T04:07:27;8.10;99.90
76203;DHT22;64985;46.364;17.008;2023-04-01T04:10:30;8.00;99.90
76203;DHT22;64985;46.364;17.008;2023-04-01T04:13:34;8.00;99.90
76203;DHT22;64985;46.364;17.008;2023-04-01T04:16:38;8.00;99.90
76203;DHT22;64985;46.364;17.008;2023-04-01T04:19:42;8.00;99.90
76203;DHT22;64985;46.364;17.008;2023-04-01T04:22:45;8.00;99.90
76203;DHT22;64985;46.364;17.008;2023-04-01T04:29:05;7.90;99.90
76203;DHT22;64985;46.364;17.008;2023-04-01T04:32:08;8.00;99.90
76203;DHT22;64985;46.364;17.008;2023-04-01T04:35:11;8.00;99.90
76203;DHT22;64985;46.364;17.008;2023-04-01T04:38:14;8.00;99.90
76203;DHT22;64985;46.364;17.008;2023-04-01T04:41:18;7.90;99.90
76203;DHT22;64985;46.364;17.008;2023-04-01T04:44:22;7.90;99.90
76203;DHT22;64985;46.364;17.008;2023-04-01T04:47:25;7.90;99.90
76203;DHT22;64985;46.364;17.008;2023-04-01T04:50:28;7.90;99.90
76203;DHT22;64985;46.364;17.008;2023-04-01T04:53:31;7.90;99.90
76203;DHT22;64985;46.364;17.008;2023-04-01T04:56:34;8.00;99.90
76203;DHT22;64985;46.364;17.008;2023-04-01T04:59:38;8.00;99.90
76203;DHT22;64985;46.364;17.008;2023-04-01T05:02:41;8.00;99.90
76203;DHT22;64985;46.364;17.008;2023-04-01T05:05:52;8.00;99.90
76203;DHT22;64985;46.364;17.008;2023-04-01T05:08:56;8.00;99.90
76203;DHT22;64985;46.364;17.008;2023-04-01T05:11:59;8.00;99.90
76203;DHT22;64985;46.364;17.008;2023-04-01T05:15:06;8.00;99.90
76203;DHT22;64985;46.364;17.008;2023-04-01T05:18:09;8.00;99.90
76203;DHT22;64985;46.364;17.008;2023-04-01T05:21:14;8.10;99.90
76203;DHT22;64985;46.364;17.008;2023-04-01T05:24:17;8.20;99.90
76203;DHT22;64985;46.364;17.008;2023-04-01T05:27:21;8.20;99.90
76203;DHT22;64985;46.364;17.008;2023-04-01T05:30:24;8.30;99.90
76203;DHT22;64985;46.364;17.008;2023-04-01T05:33:28;8.30;99.90
76203;DHT22;64985;46.364;17.008;2023-04-01T05:36:31;8.30;99.90
76203;DHT22;64985;46.364;17.008;2023-04-01T05:39:38;8.40;99.90
76203;DHT22;64985;46.364;17.008;2023-04-01T05:42:41;8.50;99.90
76203;DHT22;64985;46.364;17.008;2023-04-01T05:45:44;8.60;99.90
76203;DHT22;64985;46.364;17.008;2023-04-01T05:48:47;8.80;99.90
76203;DHT22;64985;46.364;17.008;2023-04-01T05:51:51;8.90;99.90
76203;DHT22;64985;46.364;17.008;2023-04-01T05:54:54;9.00;99.90
76203;DHT22;64985;46.364;17.008;2023-04-01T05:57:57;9.10;99.90
76203;DHT22;64985;46.364;17.008;2023-04-01T06:01:06;9.30;99.90
76203;DHT22;64985;46.364;17.008;2023-04-01T06:04:17;9.40;99.90
76203;DHT22;64985;46.364;17.008;2023-04-01T06:07:20;9.50;99.90
76203;DHT22;64985;46.364;17.008;2023-04-01T06:31:16;10.00;99.90
76203;DHT22;64985;46.364;17.008;2023-04-01T06:37:54;9.90;99.90
76203;DHT22;64985;46.364;17.008;2023-04-01T06:54:33;10.40;99.90
76203;DHT22;64985;46.364;17.008;2023-04-01T06:57:52;10.50;99.90
76203;DHT22;64985;46.364;17.008;2023-04-01T07:01:02;10.50;99.90
76203;DHT22;64985;46.364;17.008;2023-04-01T07:04:23;10.60;99.90
76203;DHT22;64985;46.364;17.008;2023-04-01T07:07:50;10.80;99.90
76203;DHT22;64985;46.364;17.008;2023-04-01T07:11:02;10.90;99.90
76203;DHT22;64985;46.364;17.008;2023-04-01T07:14:32;11.00;99.90
76203;DHT22;64985;46.364;17.008;2023-04-01T07:17:36;11.00;99.90
76203;DHT22;64985;46.364;17.008;2023-04-01T07:20:42;11.10;99.90
76203;DHT22;64985;46.364;17.008;2023-04-01T07:23:46;11.20;99.90
76203;DHT22;64985;46.364;17.008;2023-04-01T07:26:56;11.20;99.90
76203;DHT22;64985;46.364;17.008;2023-04-01T07:30:01;11.30;99.90
76203;DHT22;64985;46.364;17.008;2023-04-01T07:46:46;11.40;99.90
76203;DHT22;64985;46.364;17.008;2023-04-01T07:53:26;11.50;99.90
76203;DHT22;64985;46.364;17.008;2023-04-01T07:56:48;11.40;99.90
76203;DHT22;64985;46.364;17.008;2023-04-01T08:00:05;11.40;99.90
76203;DHT22;64985;46.364;17.008;2023-04-01T08:07:06;11.60;99.90
76203;DHT22;64985;46.364;17.008;2023-04-01T08:10:29;11.70;99.90
76203;DHT22;64985;46.364;17.008;2023-04-01T08:13:45;11.70;99.90
76203;DHT22;64985;46.364;17.008;2023-04-01T08:23:41;12.50;99.90
76203;DHT22;64985;46.364;17.008;2023-04-01T08:26:51;12.90;99.90
76203;DHT22;64985;46.364;17.008;2023-04-01T08:33:28;12.50;99.90
76203;DHT22;64985;46.364;17.008;2023-04-01T08:36:36;12.50;99.90
76203;DHT22;64985;46.364;17.008;2023-04-01T08:39:47;12.70;99.90
76203;DHT22;64985;46.364;17.008;2023-04-01T08:46:37;13.50;99.90
76203;DHT22;64985;46.364;17.008;2023-04-01T08:53:22;13.30;99.90
76203;DHT22;64985;46.364;17.008;2023-04-01T08:56:56;13.70;99.90
76203;DHT22;64985;46.364;17.008;2023-04-01T09:00:53;14.20;99.90
76203;DHT22;64985;46.364;17.008;2023-04-01T09:03:58;13.90;97.60
76203;DHT22;64985;46.364;17.008;2023-04-01T09:17:39;15.80;95.40
76203;DHT22;64985;46.364;17.008;2023-04-01T09:24:23;16.00;81.80
76203;DHT22;64985;46.364;17.008;2023-04-01T09:41:02;17.60;83.20
76203;DHT22;64985;46.364;17.008;2023-04-01T09:47:24;18.80;71.70
76203;DHT22;64985;46.364;17.008;2023-04-01T09:50:39;18.80;60.20
76203;DHT22;64985;46.364;17.008;2023-04-01T09:53:54;18.00;60.80
76203;DHT22;64985;46.364;17.008;2023-04-01T09:57:39;18.10;70.80
76203;DHT22;64985;46.364;17.008;2023-04-01T10:04:17;18.50;69.00
76203;DHT22;64985;46.364;17.008;2023-04-01T10:10:56;19.20;59.80
76203;DHT22;64985;46.364;17.008;2023-04-01T10:21:24;19.90;59.30
76203;DHT22;64985;46.364;17.008;2023-04-01T10:34:29;21.20;49.90
76203;DHT22;64985;46.364;17.008;2023-04-01T11:01:42;21.00;50.40
76203;DHT22;64985;46.364;17.008;2023-04-01T11:22:10;20.20;41.10
76203;DHT22;64985;46.364;17.008;2023-04-01T11:28:51;19.50;43.80
76203;DHT22;64985;46.364;17.008;2023-04-01T11:39:22;20.10;43.20
76203;DHT22;64985;46.364;17.008;2023-04-01T11:43:38;21.40;40.60
76203;DHT22;64985;46.364;17.008;2023-04-01T11:47:00;21.80;40.10
76203;DHT22;64985;46.364;17.008;2023-04-01T12:23:32;18.70;43.60
76203;DHT22;64985;46.364;17.008;2023-04-01T12:27:04;18.40;42.90
76203;DHT22;64985;46.364;17.008;2023-04-01T12:33:24;18.30;40.90
76203;DHT22;64985;46.364;17.008;2023-04-01T12:37:00;18.60;38.80
76203;DHT22;64985;46.364;17.008;2023-04-01T12:40:30;18.80;40.80
76203;DHT22;64985;46.364;17.008;2023-04-01T12:44:02;18.90;44.70
76203;DHT22;64985;46.364;17.008;2023-04-01T12:47:16;19.30;39.60
76203;DHT22;64985;46.364;17.008;2023-04-01T12:57:52;19.30;40.10
76203;DHT22;64985;46.364;17.008;2023-04-01T13:08:03;18.70;40.70
76203;DHT22;64985;46.364;17.008;2023-04-01T13:11:48;17.90;40.80
76203;DHT22;64985;46.364;17.008;2023-04-01T13:15:23;17.20;42.10
76203;DHT22;64985;46.364;17.008;2023-04-01T13:29:34;13.70;81.60
76203;DHT22;64985;46.364;17.008;2023-04-01T13:36:14;14.20;91.10
76203;DHT22;64985;46.364;17.008;2023-04-01T13:42:57;14.50;84.60
76203;DHT22;64985;46.364;17.008;2023-04-01T13:59:51;16.30;65.10
76203;DHT22;64985;46.364;17.008;2023-04-01T14:03:26;16.60;59.80
76203;DHT22;64985;46.364;17.008;2023-04-01T14:09:57;17.40;53.00
76203;DHT22;64985;46.364;17.008;2023-04-01T14:13:15;17.60;57.10
76203;DHT22;64985;46.364;17.008;2023-04-01T14:29:52;19.90;43.90
76203;DHT22;64985;46.364;17.008;2023-04-01T14:43:48;22.50;41.80
76203;DHT22;64985;46.364;17.008;2023-04-01T14:50:49;21.60;42.40
76203;DHT22;64985;46.364;17.008;2023-04-01T14:57:23;21.40;41.00
76203;DHT22;64985;46.364;17.008;2023-04-01T15:00:26;22.30;40.50
76203;DHT22;64985;46.364;17.008;2023-04-01T15:03:53;22.20;38.80
76203;DHT22;64985;46.364;17.008;2023-04-01T15:13:56;20.70;43.20
76203;DHT22;64985;46.364;17.008;2023-04-01T15:17:14;20.20;40.40
76203;DHT22;64985;46.364;17.008;2023-04-01T15:20:56;20.00;39.50
76203;DHT22;64985;46.364;17.008;2023-04-01T15:27:45;21.40;38.50
76203;DHT22;64985;46.364;17.008;2023-04-01T15:48:25;21.60;34.80
76203;DHT22;64985;46.364;17.008;2023-04-01T15:58:22;22.20;40.80
76203;DHT22;64985;46.364;17.008;2023-04-01T16:01:44;19.50;47.90
76203;DHT22;64985;46.364;17.008;2023-04-01T16:04:54;18.40;49.90
76203;DHT22;64985;46.364;17.008;2023-04-01T16:15:27;16.60;62.80
76203;DHT22;64985;46.364;17.008;2023-04-01T16:22:25;15.50;70.10
76203;DHT22;64985;46.364;17.008;2023-04-01T16:25:40;15.70;73.00
76203;DHT22;64985;46.364;17.008;2023-04-01T16:29:01;15.90;73.00
76203;DHT22;64985;46.364;17.008;2023-04-01T16:32:41;15.80;72.50
76203;DHT22;64985;46.364;17.008;2023-04-01T16:36:13;15.70;76.00
76203;DHT22;64985;46.364;17.008;2023-04-01T16:39:44;15.30;84.80
76203;DHT22;64985;46.364;17.008;2023-04-01T16:50:00;14.00;91.60
76203;DHT22;64985;46.364;17.008;2023-04-01T16:56:28;13.50;94.80
76203;DHT22;64985;46.364;17.008;2023-04-01T17:00:16;13.50;95.10
76203;DHT22;64985;46.364;17.008;2023-04-01T17:03:29;13.30;94.40
76203;DHT22;64985;46.364;17.008;2023-04-01T17:06:44;13.20;96.50
76203;DHT22;64985;46.364;17.008;2023-04-01T17:23:45;12.40;99.90
76203;DHT22;64985;46.364;17.008;2023-04-01T17:26:45;12.30;99.90
76203;DHT22;64985;46.364;17.008;2023-04-01T17:30:22;12.20;99.90
76203;DHT22;64985;46.364;17.008;2023-04-01T17:36:56;12.10;99.90
76203;DHT22;64985;46.364;17.008;2023-04-01T17:43:45;12.00;99.90
76203;DHT22;64985;46.364;17.008;2023-04-01T17:47:10;11.90;99.90
76203;DHT22;64985;46.364;17.008;2023-04-01T17:50:24;11.70;99.90
76203;DHT22;64985;46.364;17.008;2023-04-01T18:18:11;11.50;99.90
76203;DHT22;64985;46.364;17.008;2023-04-01T18:28:17;11.30;99.90
76203;DHT22;64985;46.364;17.008;2023-04-01T18:31:26;11.30;99.90
76203;DHT22;64985;46.364;17.008;2023-04-01T18:45:14;11.00;99.90
76203;DHT22;64985;46.364;17.008;2023-04-01T18:52:20;10.80;99.90
76203;DHT22;64985;46.364;17.008;2023-04-01T18:55:30;10.70;99.90
76203;DHT22;64985;46.364;17.008;2023-04-01T18:58:48;10.60;99.90
76203;DHT22;64985;46.364;17.008;2023-04-01T19:02:17;10.60;99.90
76203;DHT22;64985;46.364;17.008;2023-04-01T19:05:25;10.60;99.90
76203;DHT22;64985;46.364;17.008;2023-04-01T19:08:35;10.70;99.90
76203;DHT22;64985;46.364;17.008;2023-04-01T19:12:09;10.60;99.90
76203;DHT22;64985;46.364;17.008;2023-04-01T19:19:04;10.60;99.90
76203;DHT22;64985;46.364;17.008;2023-04-01T19:28:54;10.40;99.90
76203;DHT22;64985;46.364;17.008;2023-04-01T19:32:27;10.30;99.90
76203;DHT22;64985;46.364;17.008;2023-04-01T19:52:02;10.10;99.90
76203;DHT22;64985;46.364;17.008;2023-04-01T19:55:20;10.10;99.90
76203;DHT22;64985;46.364;17.008;2023-04-01T20:02:17;10.00;99.90
76203;DHT22;64985;46.364;17.008;2023-04-01T20:09:31;10.00;99.90
76203;DHT22;64985;46.364;17.008;2023-04-01T20:15:46;9.80;99.90
76203;DHT22;64985;46.364;17.008;2023-04-01T20:18:59;9.80;99.90
76203;DHT22;64985;46.364;17.008;2023-04-01T20:22:17;9.90;99.90
76203;DHT22;64985;46.364;17.008;2023-04-01T20:28:43;9.80;99.90
76203;DHT22;64985;46.364;17.008;2023-04-01T20:32:06;9.70;99.90
76203;DHT22;64985;46.364;17.008;2023-04-01T20:39:04;9.60;99.90
76203;DHT22;64985;46.364;17.008;2023-04-01T20:45:53;9.60;99.90
76203;DHT22;64985;46.364;17.008;2023-04-01T20:49:15;9.60;99.90
76203;DHT22;64985;46.364;17.008;2023-04-01T20:52:32;9.60;99.90
76203;DHT22;64985;46.364;17.008;2023-04-01T21:02:41;9.80;99.90
76203;DHT22;64985;46.364;17.008;2023-04-01T21:09:17;9.40;99.90
76203;DHT22;64985;46.364;17.008;2023-04-01T21:16:02;9.10;99.90
76203;DHT22;64985;46.364;17.008;2023-04-01T21:19:30;9.00;99.90
76203;DHT22;64985;46.364;17.008;2023-04-01T22:07:12;8.50;99.90
76203;DHT22;64985;46.364;17.008;2023-04-01T22:10:26;8.50;99.90
76203;DHT22;64985;46.364;17.008;2023-04-01T22:13:43;8.60;99.90
76203;DHT22;64985;46.364;17.008;2023-04-01T22:16:58;8.50;99.90
76203;DHT22;64985;46.364;17.008;2023-04-01T22:20:40;8.50;99.90
76203;DHT22;64985;46.364;17.008;2023-04-01T22:30:22;8.60;99.90
76203;DHT22;64985;46.364;17.008;2023-04-01T22:33:30;8.60;99.90
76203;DHT22;64985;46.364;17.008;2023-04-01T22:43:16;8.60;99.90
76203;DHT22;64985;46.364;17.008;2023-04-01T22:49:59;8.50;99.90
76203;DHT22;64985;46.364;17.008;2023-04-01T22:53:20;8.60;99.90
76203;DHT22;64985;46.364;17.008;2023-04-01T22:56:46;8.60;99.90
76203;DHT22;64985;46.364;17.008;2023-04-01T22:59:54;8.60;99.90
76203;DHT22;64985;46.364;17.008;2023-04-01T23:06:19;8.70;99.90
76203;DHT22;64985;46.364;17.008;2023-04-01T23:09:29;8.70;99.90
76203;DHT22;64985;46.364;17.008;2023-04-01T23:12:34;8.80;99.90
76203;DHT22;64985;46.364;17.008;2023-04-01T23:15:37;8.80;99.90
76203;DHT22;64985;46.364;17.008;2023-04-01T23:19:09;8.70;99.90
76203;DHT22;64985;46.364;17.008;2023-04-01T23:29:03;8.70;99.90
76203;DHT22;64985;46.364;17.008;2023-04-01T23:32:19;8.70;99.90
76203;DHT22;64985;46.364;17.008;2023-04-01T23:35:25;8.60;99.90
76203;DHT22;64985;46.364;17.008;2023-04-01T23:38:28;8.50;99.90
76203;DHT22;64985;46.364;17.008;2023-04-01T23:41:32;8.40;99.90
76203;DHT22;64985;46.364;17.008;2023-04-01T23:44:36;8.50;99.90
76203;DHT22;64985;46.364;17.008;2023-04-01T23:47:40;8.40;99.90
76203;DHT22;64985;46.364;17.008;2023-04-01T23:50:44;8.40;99.90
76203;DHT22;64985;46.364;17.008;2023-04-01T23:54:01;8.40;99.90
76203;DHT22;64985;46.364;17.008;2023-04-01T23:57:12;8.40;99.90
